sensor_id;sensor_type;location;lat;lon;timestamp;P1;durP1;ratioP1;P2;durP2;ratioP2
27422;SDS011;14878;50.778;0.258;2022-12-29T00:00:51;0.10;;;0.10;;
27422;SDS011;14878;50.778;0.258;2022-12-29T00:01:52;0.10;;;0.10;;
27422;SDS011;14878;50.778;0.258;2022-12-29T00:02:53;0.10;;;0.10;;
27422;SDS011;14878;50.778;0.258;2022-12-29T00:03:54;0.10;;;0.10;;
27422;SDS011;14878;50.778;0.258;2022-12-29T00:04:55;0.10;;;0.10;;
27422;SDS011;14878;50.778;0.258;2022-12-29T00:05:56;0.10;;;0.10;;
27422;SDS011;14878;50.778;0.258;2022-12-29T00:06:58;0.10;;;0.10;;
27422;SDS011;14878;50.778;0.258;2022-12-29T00:07:59;0.10;;;0.10;;
27422;SDS011;14878;50.778;0.258;2022-12-29T00:09:03;0.10;;;0.10;;
27422;SDS011;14878;50.778;0.258;2022-12-29T00:10:04;0.10;;;0.10;;
27422;SDS011;14878;50.778;0.258;2022-12-29T00:11:09;0.10;;;0.10;;
27422;SDS011;14878;50.778;0.258;2022-12-29T00:12:11;0.10;;;0.10;;
27422;SDS011;14878;50.778;0.258;2022-12-29T00:13:12;0.10;;;0.10;;
27422;SDS011;14878;50.778;0.258;2022-12-29T00:14:31;0.10;;;0.10;;
27422;SDS011;14878;50.778;0.258;2022-12-29T00:15:51;0.10;;;0.10;;
27422;SDS011;14878;50.778;0.258;2022-12-29T00:16:52;0.10;;;0.10;;
27422;SDS011;14878;50.778;0.258;2022-12-29T00:17:54;0.10;;;0.10;;
27422;SDS011;14878;50.778;0.258;2022-12-29T00:18:55;0.10;;;0.10;;
27422;SDS011;14878;50.778;0.258;2022-12-29T00:19:56;0.10;;;0.10;;
27422;SDS011;14878;50.778;0.258;2022-12-29T00:21:17;0.10;;;0.10;;
27422;SDS011;14878;50.778;0.258;2022-12-29T00:22:37;0.10;;;0.10;;
27422;SDS011;14878;50.778;0.258;2022-12-29T00:23:57;0.10;;;0.10;;
27422;SDS011;14878;50.778;0.258;2022-12-29T00:25:27;0.10;;;0.10;;
27422;SDS011;14878;50.778;0.258;2022-12-29T00:26:58;0.10;;;0.10;;
27422;SDS011;14878;50.778;0.258;2022-12-29T00:28:18;0.10;;;0.10;;
27422;SDS011;14878;50.778;0.258;2022-12-29T00:29:37;0.10;;;0.10;;
27422;SDS011;14878;50.778;0.258;2022-12-29T00:31:00;0.10;;;0.10;;
27422;SDS011;14878;50.778;0.258;2022-12-29T00:32:20;0.10;;;0.10;;
27422;SDS011;14878;50.778;0.258;2022-12-29T00:33:40;0.10;;;0.10;;
27422;SDS011;14878;50.778;0.258;2022-12-29T00:34:59;0.20;;;0.20;;
27422;SDS011;14878;50.778;0.258;2022-12-29T00:37:14;0.10;;;0.10;;
27422;SDS011;14878;50.778;0.258;2022-12-29T00:38:15;0.10;;;0.10;;
27422;SDS011;14878;50.778;0.258;2022-12-29T00:39:35;0.10;;;0.10;;
27422;SDS011;14878;50.778;0.258;2022-12-29T00:40:55;0.10;;;0.10;;
27422;SDS011;14878;50.778;0.258;2022-12-29T00:42:14;0.10;;;0.10;;
27422;SDS011;14878;50.778;0.258;2022-12-29T00:43:34;0.10;;;0.10;;
27422;SDS011;14878;50.778;0.258;2022-12-29T00:44:54;0.20;;;0.20;;
27422;SDS011;14878;50.778;0.258;2022-12-29T00:45:55;0.10;;;0.10;;
27422;SDS011;14878;50.778;0.258;2022-12-29T00:46:56;0.10;;;0.10;;
27422;SDS011;14878;50.778;0.258;2022-12-29T00:47:57;0.20;;;0.20;;
27422;SDS011;14878;50.778;0.258;2022-12-29T00:48:58;0.10;;;0.10;;
27422;SDS011;14878;50.778;0.258;2022-12-29T00:50:18;0.10;;;0.10;;
27422;SDS011;14878;50.778;0.258;2022-12-29T00:51:19;0.10;;;0.10;;
27422;SDS011;14878;50.778;0.258;2022-12-29T00:52:21;0.10;;;0.10;;
27422;SDS011;14878;50.778;0.258;2022-12-29T00:53:22;0.10;;;0.10;;
27422;SDS011;14878;50.778;0.258;2022-12-29T00:54:23;0.10;;;0.10;;
27422;SDS011;14878;50.778;0.258;2022-12-29T00:55:24;0.10;;;0.10;;
27422;SDS011;14878;50.778;0.258;2022-12-29T00:56:26;0.10;;;0.10;;
27422;SDS011;14878;50.778;0.258;2022-12-29T00:57:27;0.10;;;0.10;;
27422;SDS011;14878;50.778;0.258;2022-12-29T00:58:28;0.10;;;0.10;;
27422;SDS011;14878;50.778;0.258;2022-12-29T00:59:29;0.10;;;0.10;;
27422;SDS011;14878;50.778;0.258;2022-12-29T01:00:30;0.10;;;0.10;;
27422;SDS011;14878;50.778;0.258;2022-12-29T01:01:32;0.10;;;0.10;;
27422;SDS011;14878;50.778;0.258;2022-12-29T01:02:33;0.10;;;0.10;;
27422;SDS011;14878;50.778;0.258;2022-12-29T01:03:35;0.10;;;0.10;;
27422;SDS011;14878;50.778;0.258;2022-12-29T01:04:36;0.10;;;0.10;;
27422;SDS011;14878;50.778;0.258;2022-12-29T01:05:37;0.10;;;0.10;;
27422;SDS011;14878;50.778;0.258;2022-12-29T01:06:39;0.10;;;0.10;;
27422;SDS011;14878;50.778;0.258;2022-12-29T01:07:41;0.10;;;0.10;;
27422;SDS011;14878;50.778;0.258;2022-12-29T01:08:42;0.10;;;0.10;;
27422;SDS011;14878;50.778;0.258;2022-12-29T01:09:43;0.10;;;0.10;;
27422;SDS011;14878;50.778;0.258;2022-12-29T01:11:09;0.10;;;0.10;;
27422;SDS011;14878;50.778;0.258;2022-12-29T01:12:10;0.10;;;0.10;;
27422;SDS011;14878;50.778;0.258;2022-12-29T01:13:12;0.10;;;0.10;;
27422;SDS011;14878;50.778;0.258;2022-12-29T01:14:13;0.10;;;0.10;;
27422;SDS011;14878;50.778;0.258;2022-12-29T01:15:14;0.10;;;0.10;;
27422;SDS011;14878;50.778;0.258;2022-12-29T01:16:15;0.10;;;0.10;;
27422;SDS011;14878;50.778;0.258;2022-12-29T01:17:16;0.10;;;0.10;;
27422;SDS011;14878;50.778;0.258;2022-12-29T01:18:17;0.10;;;0.10;;
27422;SDS011;14878;50.778;0.258;2022-12-29T01:19:19;0.10;;;0.10;;
27422;SDS011;14878;50.778;0.258;2022-12-29T01:20:20;0.10;;;0.10;;
27422;SDS011;14878;50.778;0.258;2022-12-29T01:21:21;0.10;;;0.10;;
27422;SDS011;14878;50.778;0.258;2022-12-29T01:22:22;0.10;;;0.10;;
27422;SDS011;14878;50.778;0.258;2022-12-29T01:23:23;0.10;;;0.10;;
27422;SDS011;14878;50.778;0.258;2022-12-29T01:24:24;0.10;;;0.10;;
27422;SDS011;14878;50.778;0.258;2022-12-29T01:25:28;0.10;;;0.10;;
27422;SDS011;14878;50.778;0.258;2022-12-29T01:26:29;0.10;;;0.10;;
27422;SDS011;14878;50.778;0.258;2022-12-29T01:27:30;0.10;;;0.10;;
27422;SDS011;14878;50.778;0.258;2022-12-29T01:28:31;0.15;;;0.15;;
27422;SDS011;14878;50.778;0.258;2022-12-29T01:29:32;0.10;;;0.10;;
27422;SDS011;14878;50.778;0.258;2022-12-29T01:30:34;0.10;;;0.10;;
27422;SDS011;14878;50.778;0.258;2022-12-29T01:31:35;0.10;;;0.10;;
27422;SDS011;14878;50.778;0.258;2022-12-29T01:32:36;0.10;;;0.10;;
27422;SDS011;14878;50.778;0.258;2022-12-29T01:33:37;0.10;;;0.10;;
27422;SDS011;14878;50.778;0.258;2022-12-29T01:34:38;0.20;;;0.20;;
27422;SDS011;14878;50.778;0.258;2022-12-29T01:35:39;0.10;;;0.10;;
27422;SDS011;14878;50.778;0.258;2022-12-29T01:36:40;0.10;;;0.10;;
27422;SDS011;14878;50.778;0.258;2022-12-29T01:37:42;0.20;;;0.20;;
27422;SDS011;14878;50.778;0.258;2022-12-29T01:38:43;0.10;;;0.10;;
27422;SDS011;14878;50.778;0.258;2022-12-29T01:39:44;0.13;;;0.13;;
27422;SDS011;14878;50.778;0.258;2022-12-29T01:40:46;0.15;;;0.15;;
27422;SDS011;14878;50.778;0.258;2022-12-29T01:41:47;0.10;;;0.10;;
27422;SDS011;14878;50.778;0.258;2022-12-29T01:42:48;0.20;;;0.20;;
27422;SDS011;14878;50.778;0.258;2022-12-29T01:43:59;0.10;;;0.10;;
27422;SDS011;14878;50.778;0.258;2022-12-29T01:45:14;0.20;;;0.20;;
27422;SDS011;14878;50.778;0.258;2022-12-29T01:48:24;0.20;;;0.20;;
27422;SDS011;14878;50.778;0.258;2022-12-29T01:49:26;0.10;;;0.10;;
27422;SDS011;14878;50.778;0.258;2022-12-29T01:51:29;0.20;;;0.20;;
27422;SDS011;14878;50.778;0.258;2022-12-29T01:52:31;0.10;;;0.10;;
27422;SDS011;14878;50.778;0.258;2022-12-29T01:53:33;0.20;;;0.20;;
27422;SDS011;14878;50.778;0.258;2022-12-29T01:54:42;0.10;;;0.10;;
27422;SDS011;14878;50.778;0.258;2022-12-29T01:55:48;0.10;;;0.10;;
27422;SDS011;14878;50.778;0.258;2022-12-29T01:56:50;0.20;;;0.20;;
27422;SDS011;14878;50.778;0.258;2022-12-29T01:57:51;0.10;;;0.10;;
27422;SDS011;14878;50.778;0.258;2022-12-29T01:58:55;0.20;;;0.20;;
27422;SDS011;14878;50.778;0.258;2022-12-29T02:00:01;0.10;;;0.10;;
27422;SDS011;14878;50.778;0.258;2022-12-29T02:01:03;0.20;;;0.20;;
27422;SDS011;14878;50.778;0.258;2022-12-29T02:02:04;0.10;;;0.10;;
27422;SDS011;14878;50.778;0.258;2022-12-29T02:03:06;0.20;;;0.20;;
27422;SDS011;14878;50.778;0.258;2022-12-29T02:04:09;0.10;;;0.10;;
27422;SDS011;14878;50.778;0.258;2022-12-29T02:05:17;0.10;;;0.10;;
27422;SDS011;14878;50.778;0.258;2022-12-29T02:06:26;0.10;;;0.10;;
27422;SDS011;14878;50.778;0.258;2022-12-29T02:07:28;0.10;;;0.10;;
27422;SDS011;14878;50.778;0.258;2022-12-29T02:08:30;0.10;;;0.10;;
27422;SDS011;14878;50.778;0.258;2022-12-29T02:09:31;0.10;;;0.10;;
27422;SDS011;14878;50.778;0.258;2022-12-29T02:10:32;0.17;;;0.17;;
27422;SDS011;14878;50.778;0.258;2022-12-29T02:11:35;0.10;;;0.10;;
27422;SDS011;14878;50.778;0.258;2022-12-29T02:12:37;0.20;;;0.20;;
27422;SDS011;14878;50.778;0.258;2022-12-29T02:13:38;0.10;;;0.10;;
27422;SDS011;14878;50.778;0.258;2022-12-29T02:14:39;0.20;;;0.20;;
27422;SDS011;14878;50.778;0.258;2022-12-29T02:16:58;0.20;;;0.20;;
27422;SDS011;14878;50.778;0.258;2022-12-29T02:31:37;0.10;;;0.10;;
27422;SDS011;14878;50.778;0.258;2022-12-29T02:33:44;0.10;;;0.10;;
27422;SDS011;14878;50.778;0.258;2022-12-29T02:34:57;0.20;;;0.20;;
27422;SDS011;14878;50.778;0.258;2022-12-29T02:37:09;0.20;;;0.20;;
27422;SDS011;14878;50.778;0.258;2022-12-29T02:38:18;0.10;;;0.10;;
27422;SDS011;14878;50.778;0.258;2022-12-29T02:39:22;0.10;;;0.10;;
27422;SDS011;14878;50.778;0.258;2022-12-29T02:40:35;0.10;;;0.10;;
27422;SDS011;14878;50.778;0.258;2022-12-29T02:43:54;0.10;;;0.10;;
27422;SDS011;14878;50.778;0.258;2022-12-29T02:46:22;0.10;;;0.10;;
27422;SDS011;14878;50.778;0.258;2022-12-29T02:47:35;0.10;;;0.10;;
27422;SDS011;14878;50.778;0.258;2022-12-29T02:48:50;0.10;;;0.10;;
27422;SDS011;14878;50.778;0.258;2022-12-29T02:50:02;0.10;;;0.10;;
27422;SDS011;14878;50.778;0.258;2022-12-29T02:51:07;0.20;;;0.20;;
27422;SDS011;14878;50.778;0.258;2022-12-29T02:52:20;0.10;;;0.10;;
27422;SDS011;14878;50.778;0.258;2022-12-29T02:53:23;0.10;;;0.10;;
27422;SDS011;14878;50.778;0.258;2022-12-29T02:54:43;0.10;;;0.10;;
27422;SDS011;14878;50.778;0.258;2022-12-29T02:55:51;0.17;;;0.17;;
27422;SDS011;14878;50.778;0.258;2022-12-29T02:56:52;0.10;;;0.10;;
27422;SDS011;14878;50.778;0.258;2022-12-29T02:59:09;0.20;;;0.20;;
27422;SDS011;14878;50.778;0.258;2022-12-29T03:00:14;0.20;;;0.20;;
27422;SDS011;14878;50.778;0.258;2022-12-29T03:02:24;0.10;;;0.10;;
27422;SDS011;14878;50.778;0.258;2022-12-29T03:05:57;0.10;;;0.10;;
27422;SDS011;14878;50.778;0.258;2022-12-29T03:07:05;0.10;;;0.10;;
27422;SDS011;14878;50.778;0.258;2022-12-29T03:11:11;0.10;;;0.10;;
27422;SDS011;14878;50.778;0.258;2022-12-29T03:13:52;0.10;;;0.10;;
27422;SDS011;14878;50.778;0.258;2022-12-29T03:15:25;0.10;;;0.10;;
27422;SDS011;14878;50.778;0.258;2022-12-29T03:16:48;0.10;;;0.10;;
27422;SDS011;14878;50.778;0.258;2022-12-29T03:18:08;0.20;;;0.20;;
27422;SDS011;14878;50.778;0.258;2022-12-29T03:19:21;0.10;;;0.10;;
27422;SDS011;14878;50.778;0.258;2022-12-29T03:20:24;5.28;;;2.97;;
27422;SDS011;14878;50.778;0.258;2022-12-29T03:22:58;2.30;;;1.52;;
27422;SDS011;14878;50.778;0.258;2022-12-29T03:24:00;1.90;;;1.33;;
27422;SDS011;14878;50.778;0.258;2022-12-29T03:25:06;3.60;;;1.77;;
27422;SDS011;14878;50.778;0.258;2022-12-29T03:26:10;3.55;;;2.10;;
27422;SDS011;14878;50.778;0.258;2022-12-29T03:27:14;5.25;;;2.50;;
27422;SDS011;14878;50.778;0.258;2022-12-29T03:28:21;0.60;;;0.60;;
27422;SDS011;14878;50.778;0.258;2022-12-29T03:29:23;0.60;;;0.60;;
27422;SDS011;14878;50.778;0.258;2022-12-29T03:30:24;0.20;;;0.20;;
27422;SDS011;14878;50.778;0.258;2022-12-29T03:31:27;0.40;;;0.40;;
27422;SDS011;14878;50.778;0.258;2022-12-29T03:32:31;0.20;;;0.20;;
27422;SDS011;14878;50.778;0.258;2022-12-29T03:33:32;0.30;;;0.30;;
27422;SDS011;14878;50.778;0.258;2022-12-29T03:34:34;0.20;;;0.20;;
27422;SDS011;14878;50.778;0.258;2022-12-29T03:35:37;0.50;;;0.50;;
27422;SDS011;14878;50.778;0.258;2022-12-29T03:36:42;0.30;;;0.30;;
27422;SDS011;14878;50.778;0.258;2022-12-29T03:37:49;0.30;;;0.30;;
27422;SDS011;14878;50.778;0.258;2022-12-29T03:38:53;0.45;;;0.45;;
27422;SDS011;14878;50.778;0.258;2022-12-29T03:39:56;0.35;;;0.35;;
27422;SDS011;14878;50.778;0.258;2022-12-29T03:40:58;0.40;;;0.40;;
27422;SDS011;14878;50.778;0.258;2022-12-29T03:42:02;0.30;;;0.30;;
27422;SDS011;14878;50.778;0.258;2022-12-29T03:43:04;0.30;;;0.30;;
27422;SDS011;14878;50.778;0.258;2022-12-29T03:44:06;0.30;;;0.30;;
27422;SDS011;14878;50.778;0.258;2022-12-29T03:45:07;0.20;;;0.20;;
27422;SDS011;14878;50.778;0.258;2022-12-29T03:46:08;0.20;;;0.20;;
27422;SDS011;14878;50.778;0.258;2022-12-29T03:47:09;0.10;;;0.10;;
27422;SDS011;14878;50.778;0.258;2022-12-29T03:48:11;0.20;;;0.20;;
27422;SDS011;14878;50.778;0.258;2022-12-29T03:49:12;0.10;;;0.10;;
27422;SDS011;14878;50.778;0.258;2022-12-29T03:50:13;0.10;;;0.10;;
27422;SDS011;14878;50.778;0.258;2022-12-29T03:51:14;0.10;;;0.10;;
27422;SDS011;14878;50.778;0.258;2022-12-29T03:52:15;0.10;;;0.10;;
27422;SDS011;14878;50.778;0.258;2022-12-29T03:53:16;0.20;;;0.20;;
27422;SDS011;14878;50.778;0.258;2022-12-29T03:54:17;0.10;;;0.10;;
27422;SDS011;14878;50.778;0.258;2022-12-29T03:55:18;0.75;;;0.73;;
27422;SDS011;14878;50.778;0.258;2022-12-29T03:56:19;0.77;;;0.70;;
27422;SDS011;14878;50.778;0.258;2022-12-29T03:57:20;0.80;;;0.60;;
27422;SDS011;14878;50.778;0.258;2022-12-29T03:58:22;0.95;;;0.88;;
27422;SDS011;14878;50.778;0.258;2022-12-29T03:59:23;0.17;;;0.17;;
27422;SDS011;14878;50.778;0.258;2022-12-29T04:00:24;0.50;;;0.50;;
27422;SDS011;14878;50.778;0.258;2022-12-29T04:01:25;0.80;;;0.70;;
27422;SDS011;14878;50.778;0.258;2022-12-29T04:02:26;0.10;;;0.10;;
27422;SDS011;14878;50.778;0.258;2022-12-29T04:03:27;0.10;;;0.10;;
27422;SDS011;14878;50.778;0.258;2022-12-29T04:04:28;0.20;;;0.20;;
27422;SDS011;14878;50.778;0.258;2022-12-29T04:05:29;0.10;;;0.10;;
27422;SDS011;14878;50.778;0.258;2022-12-29T04:06:31;0.10;;;0.10;;
27422;SDS011;14878;50.778;0.258;2022-12-29T04:07:32;0.10;;;0.10;;
27422;SDS011;14878;50.778;0.258;2022-12-29T04:08:33;0.10;;;0.10;;
27422;SDS011;14878;50.778;0.258;2022-12-29T04:09:34;0.20;;;0.20;;
27422;SDS011;14878;50.778;0.258;2022-12-29T04:10:35;0.10;;;0.10;;
27422;SDS011;14878;50.778;0.258;2022-12-29T04:11:36;0.10;;;0.10;;
27422;SDS011;14878;50.778;0.258;2022-12-29T04:12:37;0.10;;;0.10;;
27422;SDS011;14878;50.778;0.258;2022-12-29T04:13:38;0.10;;;0.10;;
27422;SDS011;14878;50.778;0.258;2022-12-29T04:14:40;0.10;;;0.10;;
27422;SDS011;14878;50.778;0.258;2022-12-29T04:15:42;0.10;;;0.10;;
27422;SDS011;14878;50.778;0.258;2022-12-29T04:16:43;0.10;;;0.10;;
27422;SDS011;14878;50.778;0.258;2022-12-29T04:17:44;0.15;;;0.15;;
27422;SDS011;14878;50.778;0.258;2022-12-29T04:18:46;0.10;;;0.10;;
27422;SDS011;14878;50.778;0.258;2022-12-29T04:19:47;0.20;;;0.20;;
27422;SDS011;14878;50.778;0.258;2022-12-29T04:20:48;0.10;;;0.10;;
27422;SDS011;14878;50.778;0.258;2022-12-29T04:22:02;0.10;;;0.10;;
27422;SDS011;14878;50.778;0.258;2022-12-29T04:23:03;0.20;;;0.20;;
27422;SDS011;14878;50.778;0.258;2022-12-29T04:24:05;0.10;;;0.10;;
27422;SDS011;14878;50.778;0.258;2022-12-29T04:25:06;0.10;;;0.10;;
27422;SDS011;14878;50.778;0.258;2022-12-29T04:26:08;0.10;;;0.10;;
27422;SDS011;14878;50.778;0.258;2022-12-29T04:27:09;0.10;;;0.10;;
27422;SDS011;14878;50.778;0.258;2022-12-29T04:28:10;0.10;;;0.10;;
27422;SDS011;14878;50.778;0.258;2022-12-29T04:29:11;0.10;;;0.10;;
27422;SDS011;14878;50.778;0.258;2022-12-29T04:30:12;0.10;;;0.10;;
27422;SDS011;14878;50.778;0.258;2022-12-29T04:31:13;0.10;;;0.10;;
27422;SDS011;14878;50.778;0.258;2022-12-29T04:32:14;0.10;;;0.10;;
27422;SDS011;14878;50.778;0.258;2022-12-29T04:33:15;0.10;;;0.10;;
27422;SDS011;14878;50.778;0.258;2022-12-29T04:34:16;0.10;;;0.10;;
27422;SDS011;14878;50.778;0.258;2022-12-29T04:35:17;0.10;;;0.10;;
27422;SDS011;14878;50.778;0.258;2022-12-29T04:36:19;0.20;;;0.20;;
27422;SDS011;14878;50.778;0.258;2022-12-29T04:37:20;0.10;;;0.10;;
27422;SDS011;14878;50.778;0.258;2022-12-29T04:38:21;0.10;;;0.10;;
27422;SDS011;14878;50.778;0.258;2022-12-29T04:39:23;0.10;;;0.10;;
27422;SDS011;14878;50.778;0.258;2022-12-29T04:40:24;0.10;;;0.10;;
27422;SDS011;14878;50.778;0.258;2022-12-29T04:41:25;0.10;;;0.10;;
27422;SDS011;14878;50.778;0.258;2022-12-29T04:42:26;0.10;;;0.10;;
27422;SDS011;14878;50.778;0.258;2022-12-29T04:43:27;0.10;;;0.10;;
27422;SDS011;14878;50.778;0.258;2022-12-29T04:44:28;0.10;;;0.10;;
27422;SDS011;14878;50.778;0.258;2022-12-29T04:45:30;0.10;;;0.10;;
27422;SDS011;14878;50.778;0.258;2022-12-29T04:46:31;0.10;;;0.10;;
27422;SDS011;14878;50.778;0.258;2022-12-29T04:47:32;0.10;;;0.10;;
27422;SDS011;14878;50.778;0.258;2022-12-29T04:48:33;0.10;;;0.10;;
27422;SDS011;14878;50.778;0.258;2022-12-29T04:49:34;0.10;;;0.10;;
27422;SDS011;14878;50.778;0.258;2022-12-29T04:50:35;0.10;;;0.10;;
27422;SDS011;14878;50.778;0.258;2022-12-29T04:51:36;0.10;;;0.10;;
27422;SDS011;14878;50.778;0.258;2022-12-29T04:52:37;0.10;;;0.10;;
27422;SDS011;14878;50.778;0.258;2022-12-29T04:53:38;0.10;;;0.10;;
27422;SDS011;14878;50.778;0.258;2022-12-29T04:54:39;0.10;;;0.10;;
27422;SDS011;14878;50.778;0.258;2022-12-29T04:55:40;0.10;;;0.10;;
27422;SDS011;14878;50.778;0.258;2022-12-29T04:56:41;0.10;;;0.10;;
27422;SDS011;14878;50.778;0.258;2022-12-29T04:57:42;0.10;;;0.10;;
27422;SDS011;14878;50.778;0.258;2022-12-29T04:58:43;0.10;;;0.10;;
27422;SDS011;14878;50.778;0.258;2022-12-29T04:59:44;0.10;;;0.10;;
27422;SDS011;14878;50.778;0.258;2022-12-29T05:00:45;0.10;;;0.10;;
27422;SDS011;14878;50.778;0.258;2022-12-29T05:01:46;0.10;;;0.10;;
27422;SDS011;14878;50.778;0.258;2022-12-29T05:02:47;0.10;;;0.10;;
27422;SDS011;14878;50.778;0.258;2022-12-29T05:03:49;0.10;;;0.10;;
27422;SDS011;14878;50.778;0.258;2022-12-29T05:04:51;0.10;;;0.10;;
27422;SDS011;14878;50.778;0.258;2022-12-29T05:05:53;0.10;;;0.10;;
27422;SDS011;14878;50.778;0.258;2022-12-29T05:06:54;0.10;;;0.10;;
27422;SDS011;14878;50.778;0.258;2022-12-29T05:07:55;0.10;;;0.10;;
27422;SDS011;14878;50.778;0.258;2022-12-29T05:08:57;0.10;;;0.10;;
27422;SDS011;14878;50.778;0.258;2022-12-29T05:09:58;0.10;;;0.10;;
27422;SDS011;14878;50.778;0.258;2022-12-29T05:10:59;0.10;;;0.10;;
27422;SDS011;14878;50.778;0.258;2022-12-29T05:12:00;0.10;;;0.10;;
27422;SDS011;14878;50.778;0.258;2022-12-29T05:13:01;0.10;;;0.10;;
27422;SDS011;14878;50.778;0.258;2022-12-29T05:14:02;0.10;;;0.10;;
27422;SDS011;14878;50.778;0.258;2022-12-29T05:15:04;0.20;;;0.20;;
27422;SDS011;14878;50.778;0.258;2022-12-29T05:16:05;0.10;;;0.10;;
27422;SDS011;14878;50.778;0.258;2022-12-29T05:17:06;0.10;;;0.10;;
27422;SDS011;14878;50.778;0.258;2022-12-29T05:18:07;0.10;;;0.10;;
27422;SDS011;14878;50.778;0.258;2022-12-29T05:19:08;0.10;;;0.10;;
27422;SDS011;14878;50.778;0.258;2022-12-29T05:20:10;0.17;;;0.17;;
27422;SDS011;14878;50.778;0.258;2022-12-29T05:21:11;0.10;;;0.10;;
27422;SDS011;14878;50.778;0.258;2022-12-29T05:22:12;0.10;;;0.10;;
27422;SDS011;14878;50.778;0.258;2022-12-29T05:23:13;0.10;;;0.10;;
27422;SDS011;14878;50.778;0.258;2022-12-29T05:24:15;0.10;;;0.10;;
27422;SDS011;14878;50.778;0.258;2022-12-29T05:25:16;0.20;;;0.20;;
27422;SDS011;14878;50.778;0.258;2022-12-29T05:26:17;0.10;;;0.10;;
27422;SDS011;14878;50.778;0.258;2022-12-29T05:27:18;0.10;;;0.10;;
27422;SDS011;14878;50.778;0.258;2022-12-29T05:28:19;0.10;;;0.10;;
27422;SDS011;14878;50.778;0.258;2022-12-29T05:29:20;0.10;;;0.10;;
27422;SDS011;14878;50.778;0.258;2022-12-29T05:30:21;0.10;;;0.10;;
27422;SDS011;14878;50.778;0.258;2022-12-29T05:31:22;0.10;;;0.10;;
27422;SDS011;14878;50.778;0.258;2022-12-29T05:32:23;0.10;;;0.10;;
27422;SDS011;14878;50.778;0.258;2022-12-29T05:33:24;0.10;;;0.10;;
27422;SDS011;14878;50.778;0.258;2022-12-29T05:34:25;0.10;;;0.10;;
27422;SDS011;14878;50.778;0.258;2022-12-29T05:35:26;0.20;;;0.20;;
27422;SDS011;14878;50.778;0.258;2022-12-29T05:36:27;0.10;;;0.10;;
27422;SDS011;14878;50.778;0.258;2022-12-29T05:37:28;0.20;;;0.20;;
27422;SDS011;14878;50.778;0.258;2022-12-29T05:38:29;0.10;;;0.10;;
27422;SDS011;14878;50.778;0.258;2022-12-29T05:39:30;0.10;;;0.10;;
27422;SDS011;14878;50.778;0.258;2022-12-29T05:40:32;0.10;;;0.10;;
27422;SDS011;14878;50.778;0.258;2022-12-29T05:41:33;0.10;;;0.10;;
27422;SDS011;14878;50.778;0.258;2022-12-29T05:42:34;0.13;;;0.13;;
27422;SDS011;14878;50.778;0.258;2022-12-29T05:43:35;0.10;;;0.10;;
27422;SDS011;14878;50.778;0.258;2022-12-29T05:44:36;0.20;;;0.20;;
27422;SDS011;14878;50.778;0.258;2022-12-29T05:45:37;0.10;;;0.10;;
27422;SDS011;14878;50.778;0.258;2022-12-29T05:46:38;0.10;;;0.10;;
27422;SDS011;14878;50.778;0.258;2022-12-29T05:47:39;0.10;;;0.10;;
27422;SDS011;14878;50.778;0.258;2022-12-29T05:48:40;0.10;;;0.10;;
27422;SDS011;14878;50.778;0.258;2022-12-29T05:49:41;0.10;;;0.10;;
27422;SDS011;14878;50.778;0.258;2022-12-29T05:50:43;0.10;;;0.10;;
27422;SDS011;14878;50.778;0.258;2022-12-29T05:51:47;0.10;;;0.10;;
27422;SDS011;14878;50.778;0.258;2022-12-29T05:52:48;0.10;;;0.10;;
27422;SDS011;14878;50.778;0.258;2022-12-29T05:53:49;0.20;;;0.20;;
27422;SDS011;14878;50.778;0.258;2022-12-29T05:54:50;0.10;;;0.10;;
27422;SDS011;14878;50.778;0.258;2022-12-29T05:55:51;0.10;;;0.10;;
27422;SDS011;14878;50.778;0.258;2022-12-29T05:56:52;0.10;;;0.10;;
27422;SDS011;14878;50.778;0.258;2022-12-29T05:57:53;0.10;;;0.10;;
27422;SDS011;14878;50.778;0.258;2022-12-29T05:58:55;0.10;;;0.10;;
27422;SDS011;14878;50.778;0.258;2022-12-29T05:59:56;0.10;;;0.10;;
27422;SDS011;14878;50.778;0.258;2022-12-29T06:00:57;0.10;;;0.10;;
27422;SDS011;14878;50.778;0.258;2022-12-29T06:01:58;0.10;;;0.10;;
27422;SDS011;14878;50.778;0.258;2022-12-29T06:02:59;0.10;;;0.10;;
27422;SDS011;14878;50.778;0.258;2022-12-29T06:04:00;0.10;;;0.10;;
27422;SDS011;14878;50.778;0.258;2022-12-29T06:05:01;0.10;;;0.10;;
27422;SDS011;14878;50.778;0.258;2022-12-29T06:06:02;0.10;;;0.10;;
27422;SDS011;14878;50.778;0.258;2022-12-29T06:07:03;0.10;;;0.10;;
27422;SDS011;14878;50.778;0.258;2022-12-29T06:08:04;0.10;;;0.10;;
27422;SDS011;14878;50.778;0.258;2022-12-29T06:09:06;0.10;;;0.10;;
27422;SDS011;14878;50.778;0.258;2022-12-29T06:10:07;0.10;;;0.10;;
27422;SDS011;14878;50.778;0.258;2022-12-29T06:11:08;0.10;;;0.10;;
27422;SDS011;14878;50.778;0.258;2022-12-29T06:12:09;0.10;;;0.10;;
27422;SDS011;14878;50.778;0.258;2022-12-29T06:13:10;0.10;;;0.10;;
27422;SDS011;14878;50.778;0.258;2022-12-29T06:14:11;0.10;;;0.10;;
27422;SDS011;14878;50.778;0.258;2022-12-29T06:15:12;0.10;;;0.10;;
27422;SDS011;14878;50.778;0.258;2022-12-29T06:16:13;0.20;;;0.20;;
27422;SDS011;14878;50.778;0.258;2022-12-29T06:17:14;0.10;;;0.10;;
27422;SDS011;14878;50.778;0.258;2022-12-29T06:18:15;0.10;;;0.10;;
27422;SDS011;14878;50.778;0.258;2022-12-29T06:19:17;0.10;;;0.10;;
27422;SDS011;14878;50.778;0.258;2022-12-29T06:20:18;0.10;;;0.10;;
27422;SDS011;14878;50.778;0.258;2022-12-29T06:21:19;0.10;;;0.10;;
27422;SDS011;14878;50.778;0.258;2022-12-29T06:22:20;0.10;;;0.10;;
27422;SDS011;14878;50.778;0.258;2022-12-29T06:23:21;0.10;;;0.10;;
27422;SDS011;14878;50.778;0.258;2022-12-29T06:24:22;0.10;;;0.10;;
27422;SDS011;14878;50.778;0.258;2022-12-29T06:25:23;0.10;;;0.10;;
27422;SDS011;14878;50.778;0.258;2022-12-29T06:26:24;0.10;;;0.10;;
27422;SDS011;14878;50.778;0.258;2022-12-29T06:27:25;0.10;;;0.10;;
27422;SDS011;14878;50.778;0.258;2022-12-29T06:28:26;0.10;;;0.10;;
27422;SDS011;14878;50.778;0.258;2022-12-29T06:29:27;0.10;;;0.10;;
27422;SDS011;14878;50.778;0.258;2022-12-29T06:30:28;0.10;;;0.10;;
27422;SDS011;14878;50.778;0.258;2022-12-29T06:31:30;0.10;;;0.10;;
27422;SDS011;14878;50.778;0.258;2022-12-29T06:32:31;0.10;;;0.10;;
27422;SDS011;14878;50.778;0.258;2022-12-29T06:33:32;0.10;;;0.10;;
27422;SDS011;14878;50.778;0.258;2022-12-29T06:34:33;0.10;;;0.10;;
27422;SDS011;14878;50.778;0.258;2022-12-29T06:35:34;0.10;;;0.10;;
27422;SDS011;14878;50.778;0.258;2022-12-29T06:36:35;0.10;;;0.10;;
27422;SDS011;14878;50.778;0.258;2022-12-29T06:37:36;0.10;;;0.10;;
27422;SDS011;14878;50.778;0.258;2022-12-29T06:38:37;0.20;;;0.20;;
27422;SDS011;14878;50.778;0.258;2022-12-29T06:39:41;0.10;;;0.10;;
27422;SDS011;14878;50.778;0.258;2022-12-29T06:40:43;0.10;;;0.10;;
27422;SDS011;14878;50.778;0.258;2022-12-29T06:41:45;0.10;;;0.10;;
27422;SDS011;14878;50.778;0.258;2022-12-29T06:42:46;0.10;;;0.10;;
27422;SDS011;14878;50.778;0.258;2022-12-29T06:43:47;0.10;;;0.10;;
27422;SDS011;14878;50.778;0.258;2022-12-29T06:44:48;0.00;;;0.00;;
27422;SDS011;14878;50.778;0.258;2022-12-29T06:45:49;0.10;;;0.10;;
27422;SDS011;14878;50.778;0.258;2022-12-29T06:46:50;0.10;;;0.10;;
27422;SDS011;14878;50.778;0.258;2022-12-29T06:47:51;0.10;;;0.10;;
27422;SDS011;14878;50.778;0.258;2022-12-29T06:48:52;0.10;;;0.10;;
27422;SDS011;14878;50.778;0.258;2022-12-29T06:49:53;0.13;;;0.13;;
27422;SDS011;14878;50.778;0.258;2022-12-29T06:50:55;0.10;;;0.10;;
27422;SDS011;14878;50.778;0.258;2022-12-29T06:51:56;0.20;;;0.20;;
27422;SDS011;14878;50.778;0.258;2022-12-29T06:52:59;0.10;;;0.10;;
27422;SDS011;14878;50.778;0.258;2022-12-29T06:54:00;0.10;;;0.10;;
27422;SDS011;14878;50.778;0.258;2022-12-29T06:55:02;0.10;;;0.10;;
27422;SDS011;14878;50.778;0.258;2022-12-29T06:56:03;0.10;;;0.10;;
27422;SDS011;14878;50.778;0.258;2022-12-29T06:57:04;0.10;;;0.10;;
27422;SDS011;14878;50.778;0.258;2022-12-29T06:58:05;0.10;;;0.10;;